Time;durP1;ratioP1;P1;durP2;ratioP2;P2;SDS_P1;SDS_P2;PMS_P1;PMS_P2;Temp;Humidity;BMP_temperature;BMP_pressure;BME280_temperature;BME280_humidity;BME280_pressure;Samples;Min_cycle;Max_cycle;Signal;HPM_P1;HPM_P2
2023/02/05 00:00:40;;;;;;;9.00;3.40;;;-1.70;99.90;;;-3.46;93.17;103588.72;4951711;28;20043;-75
2023/02/05 00:03:06;;;;;;;8.18;3.58;;;-1.70;99.90;;;-3.49;93.39;103585.09;4971842;28;20054;-74
2023/02/05 00:05:31;;;;;;;7.90;3.50;;;-1.70;99.90;;;-3.46;93.16;103585.25;4965927;28;20034;-74
2023/02/05 00:07:57;;;;;;;7.07;3.30;;;-1.70;99.90;;;-3.43;93.45;103593.16;4979549;28;22552;-74
2023/02/05 00:10:23;;;;;;;6.18;2.95;;;-1.70;99.90;;;-3.41;93.40;103586.38;4971725;28;20041;-75
2023/02/05 00:12:49;;;;;;;8.95;3.42;;;-1.60;99.90;;;-3.40;93.81;103581.34;4984533;28;20034;-75
2023/02/05 00:15:15;;;;;;;6.85;3.10;;;-1.60;99.90;;;-3.41;93.57;103577.00;4970118;28;20038;-74
2023/02/05 00:17:40;;;;;;;8.20;3.92;;;-1.60;99.90;;;-3.41;93.69;103574.41;4979067;28;20060;-74
2023/02/05 00:20:07;;;;;;;7.10;3.78;;;-1.60;99.90;;;-3.39;93.44;103570.25;4982991;28;20030;-74
2023/02/05 00:22:35;;;;;;;12.07;4.10;;;-1.60;99.90;;;-3.39;93.45;103559.94;4970773;28;20073;-75
2023/02/05 00:25:01;;;;;;;8.60;3.30;;;-1.60;99.90;;;-3.38;93.13;103553.09;4980681;28;20026;-74
2023/02/05 00:27:27;;;;;;;5.05;3.13;;;-1.60;99.90;;;-3.37;93.61;103554.84;4998908;28;20091;-74
2023/02/05 00:29:53;;;;;;;8.32;3.65;;;-1.60;99.90;;;-3.35;93.40;103558.41;4989518;28;20033;-74
2023/02/05 00:32:18;;;;;;;11.43;3.60;;;-1.60;99.90;;;-3.33;93.40;103557.69;4971332;28;20446;-74
2023/02/05 00:34:44;;;;;;;9.00;4.13;;;-1.60;99.90;;;-3.32;93.74;103563.75;4980401;28;20160;-75
2023/02/05 00:37:10;;;;;;;13.25;3.88;;;-1.50;99.90;;;-3.31;93.16;103563.81;4988525;28;20075;-74
2023/02/05 00:39:36;;;;;;;10.52;3.97;;;-1.60;99.90;;;-3.31;93.81;103553.50;4990050;28;20084;-76
2023/02/05 00:42:04;;;;;;;9.80;3.97;;;-1.60;99.90;;;-3.28;93.69;103560.53;4990784;28;20034;-74
2023/02/05 00:44:30;;;;;;;6.45;3.60;;;-1.50;99.90;;;-3.27;93.62;103551.97;4987753;28;20026;-74
2023/02/05 00:46:56;;;;;;;10.27;3.78;;;-1.50;99.90;;;-3.27;94.12;103554.56;4968932;28;20042;-74
2023/02/05 00:49:21;;;;;;;7.28;3.63;;;-1.50;99.90;;;-3.25;93.82;103555.53;4987524;28;20118;-74
2023/02/05 00:51:47;;;;;;;9.20;3.92;;;-1.50;99.90;;;-3.23;93.96;103551.34;4986551;28;20794;-75
2023/02/05 00:54:13;;;;;;;8.48;3.80;;;-1.50;99.90;;;-3.22;93.80;103545.38;4993211;28;20037;-74
2023/02/05 00:56:39;;;;;;;8.68;3.58;;;-1.50;99.90;;;-3.20;93.97;103540.31;4973173;28;20033;-74
2023/02/05 00:59:05;;;;;;;8.60;3.70;;;-1.50;99.90;;;-3.20;94.10;103546.34;4988016;28;20089;-75
2023/02/05 01:01:30;;;;;;;11.43;3.70;;;-1.40;99.90;;;-3.18;94.06;103537.03;4963291;28;20323;-75
2023/02/05 01:03:56;;;;;;;9.27;3.88;;;-1.40;99.90;;;-3.18;94.50;103531.88;4965942;28;20030;-74
2023/02/05 01:06:22;;;;;;;7.43;3.42;;;-1.40;99.90;;;-3.18;94.48;103536.16;4989237;28;20034;-74
2023/02/05 01:08:48;;;;;;;8.88;3.78;;;-1.40;99.90;;;-3.22;94.78;103527.34;4980424;28;20032;-74
2023/02/05 01:11:14;;;;;;;10.63;3.75;;;-1.50;99.90;;;-3.24;94.83;103535.81;4965158;28;20034;-75
2023/02/05 01:13:40;;;;;;;10.27;4.35;;;-1.50;99.90;;;-3.25;94.43;103529.78;4981436;28;20061;-74
2023/02/05 01:16:09;;;;;;;10.73;4.00;;;-1.50;99.90;;;-3.25;94.62;103534.91;4974833;28;20531;-75
2023/02/05 01:18:35;;;;;;;9.38;4.20;;;-1.50;99.90;;;-3.23;94.76;103523.00;4983474;28;20042;-75
2023/02/05 01:21:01;;;;;;;9.63;4.10;;;-1.50;99.90;;;-3.24;94.34;103516.09;4975993;28;20526;-75
2023/02/05 01:23:26;;;;;;;7.80;4.25;;;-1.50;99.90;;;-3.26;94.48;103519.38;4982638;28;20676;-74
2023/02/05 01:25:52;;;;;;;12.55;4.35;;;-1.50;99.90;;;-3.31;94.40;103519.13;4983311;28;20030;-74
2023/02/05 01:28:18;;;;;;;8.23;4.10;;;-1.50;99.90;;;-3.34;94.74;103513.81;4968921;28;20407;-74
2023/02/05 01:30:49;;;;;;;7.60;4.18;;;-1.60;99.90;;;-3.39;95.11;103499.75;4985129;28;20037;-74
2023/02/05 01:33:16;;;;;;;9.68;3.92;;;-1.60;99.90;;;-3.44;95.38;103501.22;4974750;28;20031;-74
2023/02/05 01:35:43;;;;;;;7.80;3.85;;;-1.60;99.90;;;-3.42;95.78;103492.75;4963504;28;20085;-74
2023/02/05 01:38:13;;;;;;;6.97;3.30;;;-1.60;99.90;;;-3.38;95.75;103492.13;4989582;28;20042;-74
2023/02/05 01:40:41;;;;;;;7.60;3.80;;;-1.60;99.90;;;-3.37;95.32;103481.03;4987637;28;20042;-74
2023/02/05 01:43:15;;;;;;;9.18;3.63;;;-1.60;99.90;;;-3.35;95.90;103468.22;4989456;28;20112;-75
2023/02/05 01:46:10;;;;;;;6.80;3.50;;;-1.60;99.90;;;-3.32;95.42;103460.66;5006404;28;20030;-75
2023/02/05 01:48:47;;;;;;;6.68;3.30;;;-1.60;99.90;;;-3.31;95.81;103460.72;4975893;28;20037;-75
2023/02/05 01:51:14;;;;;;;6.90;3.10;;;-1.60;99.90;;;-3.32;95.61;103450.38;4965500;28;20039;-75
2023/02/05 01:53:41;;;;;;;6.78;3.60;;;-1.50;99.90;;;-3.29;95.19;103450.50;4988315;28;20034;-74
2023/02/05 01:56:20;;;;;;;8.98;3.35;;;-1.50;99.90;;;-3.31;95.24;103457.28;4983240;28;20040;-75
2023/02/05 01:58:57;;;;;;;7.60;2.88;;;-1.60;99.90;;;-3.31;94.60;103453.00;4982540;28;20046;-74
2023/02/05 02:01:25;;;;;;;8.00;2.85;;;-1.60;99.90;;;-3.32;94.51;103440.94;4992965;28;20057;-74
2023/02/05 02:03:54;;;;;;;8.40;2.90;;;-1.50;99.90;;;-3.31;94.40;103434.09;4974356;28;20089;-74
2023/02/05 02:06:20;;;;;;;9.57;3.15;;;-1.50;99.90;;;-3.29;94.53;103435.06;4967416;28;20081;-74
2023/02/05 02:08:46;;;;;;;5.60;2.92;;;-1.50;99.90;;;-3.37;93.88;103424.34;4972820;28;20557;-74
2023/02/05 02:11:17;;;;;;;9.95;3.33;;;-1.50;99.90;;;-3.46;94.52;103415.22;4978772;28;20049;-75
2023/02/05 02:13:49;;;;;;;9.43;3.03;;;-1.50;99.90;;;-3.37;94.45;103407.97;4959307;28;20054;-75
2023/02/05 02:16:15;;;;;;;7.80;3.10;;;-1.60;99.90;;;-3.38;94.45;103420.00;4972779;28;20176;-74
2023/02/05 02:18:41;;;;;;;8.63;3.67;;;-1.50;99.90;;;-3.32;94.52;103424.59;4989421;28;20042;-74
2023/02/05 02:21:46;;;;;;;11.10;3.00;;;-1.50;99.90;;;-3.26;94.16;103413.72;4991237;28;20046;-75
2023/02/05 02:24:27;;;;;;;9.43;3.42;;;-1.50;99.90;;;-3.23;94.48;103419.06;4969496;28;20046;-74
2023/02/05 02:27:12;;;;;;;13.38;4.80;;;-1.50;99.90;;;-3.24;94.40;103413.00;4994032;28;20045;-75
2023/02/05 02:30:38;;;;;;;17.25;5.13;;;-1.50;99.90;;;-3.24;95.16;103420.75;4984679;28;20037;-74
2023/02/05 02:33:45;;;;;;;8.85;4.00;;;-1.40;99.90;;;-3.24;95.66;103428.47;4961387;28;20794;-74
2023/02/05 02:36:33;;;;;;;7.82;3.78;;;-1.50;99.90;;;-3.23;95.70;103435.38;4977429;28;20987;-74
2023/02/05 02:39:17;;;;;;;7.90;4.00;;;-1.40;99.90;;;-3.22;95.57;103437.16;4979845;28;20068;-75
2023/02/05 02:41:57;;;;;;;8.95;4.07;;;-1.40;99.90;;;-3.29;95.87;103435.06;4989528;28;20129;-75
2023/02/05 02:44:47;;;;;;;9.80;4.15;;;-1.40;99.90;;;-3.27;96.07;103437.72;4987278;28;20045;-75
2023/02/05 02:47:24;;;;;;;9.43;4.25;;;-1.40;99.90;;;-3.26;96.91;103430.09;4992396;28;20034;-74
2023/02/05 02:50:07;;;;;;;6.70;3.70;;;-1.40;99.90;;;-3.26;95.96;103426.59;4983098;28;20049;-74
2023/02/05 02:52:39;;;;;;;9.93;4.00;;;-1.40;99.90;;;-3.27;97.26;103433.44;4977596;28;20045;-74
2023/02/05 02:55:10;;;;;;;7.82;3.72;;;-1.50;99.90;;;-3.26;96.84;103427.50;4957973;28;20030;-74
2023/02/05 02:57:42;;;;;;;7.22;4.00;;;-1.40;99.90;;;-3.26;97.00;103430.09;4980241;28;20122;-75
2023/02/05 03:00:19;;;;;;;9.25;3.97;;;-1.50;99.90;;;-3.26;96.59;103430.09;4990596;28;20042;-74
2023/02/05 03:02:47;;;;;;;8.13;4.20;;;-1.50;99.90;;;-3.26;96.64;103435.25;4980005;28;20036;-75
2023/02/05 03:05:22;;;;;;;10.73;4.40;;;-1.50;99.90;;;-3.27;96.60;103443.75;4979600;28;20034;-74
2023/02/05 03:08:00;;;;;;;7.07;4.05;;;-1.50;99.90;;;-3.30;96.89;103444.47;4973397;28;20070;-75
2023/02/05 03:10:32;;;;;;;9.43;3.97;;;-1.50;99.90;;;-3.33;96.30;103446.88;4983400;28;20030;-75
2023/02/05 03:12:58;;;;;;;11.57;4.80;;;-1.60;99.90;;;-3.38;96.11;103442.28;4991473;28;20387;-74
2023/02/05 03:15:24;;;;;;;11.10;4.18;;;-1.60;99.90;;;-3.47;96.08;103427.22;4964653;28;20186;-74
2023/02/05 03:17:53;;;;;;;14.65;4.68;;;-1.70;99.90;;;-3.57;96.28;103418.09;4966643;28;20041;-74
2023/02/05 03:20:30;;;;;;;8.50;3.83;;;-1.70;99.90;;;-3.64;96.17;103418.56;4987740;28;20026;-74
2023/02/05 03:22:56;;;;;;;11.45;4.82;;;-1.80;99.90;;;-3.71;96.59;103424.19;4975106;28;20659;-74
2023/02/05 03:25:24;;;;;;;9.63;5.00;;;-1.90;99.90;;;-3.84;96.95;103421.75;4971139;28;20099;-75
2023/02/05 03:27:52;;;;;;;11.88;5.13;;;-2.00;99.90;;;-3.95;96.86;103419.44;4988934;28;20022;-75
2023/02/05 03:30:19;;;;;;;12.63;5.43;;;-2.10;99.90;;;-3.99;98.02;103420.06;4973601;28;20053;-73
2023/02/05 03:33:22;;;;;;;11.60;5.50;;;-2.10;99.90;;;-4.06;98.25;103430.84;4976538;28;20033;-74
2023/02/05 03:36:04;;;;;;;15.65;5.43;;;-2.20;99.90;;;-4.21;98.31;103428.28;4985648;28;20034;-74
2023/02/05 03:38:47;;;;;;;12.98;5.28;;;-2.30;99.90;;;-4.26;98.74;103427.09;4986409;28;20108;-74
2023/02/05 03:41:54;;;;;;;10.98;5.25;;;-2.40;99.90;;;-4.36;99.18;103423.13;4981070;28;20030;-75
2023/02/05 03:44:33;;;;;;;12.38;4.50;;;-2.40;99.90;;;-4.44;100.00;103423.47;4991197;28;20061;-74
2023/02/05 03:47:16;;;;;;;8.07;4.18;;;-2.50;99.90;;;-4.48;100.00;103434.38;4985728;28;20034;-75
2023/02/05 03:50:03;;;;;;;11.30;4.53;;;-2.50;99.90;;;-4.56;100.00;103436.50;4989965;28;20031;-75
2023/02/05 03:52:42;;;;;;;12.23;5.03;;;-2.50;99.90;;;-4.49;100.00;103436.06;4985628;28;20045;-74
2023/02/05 03:55:21;;;;;;;12.40;4.63;;;-2.80;99.90;;;-4.51;100.00;103436.75;4968601;28;20030;-74
2023/02/05 03:57:59;;;;;;;13.98;5.82;;;-2.50;99.90;;;-4.56;100.00;103428.78;4980126;28;20038;-75
2023/02/05 04:00:29;;;;;;;10.70;5.65;;;-2.50;99.90;;;-4.46;100.00;103427.66;4970156;28;20053;-75
2023/02/05 04:02:54;;;;;;;11.55;5.40;;;-2.50;99.90;;;-4.35;100.00;103419.75;4989603;28;20580;-74
2023/02/05 04:05:21;;;;;;;10.57;5.50;;;-2.40;99.90;;;-4.38;100.00;103427.28;4987969;28;20034;-75
2023/02/05 04:07:49;;;;;;;13.43;5.57;;;-2.40;99.90;;;-4.27;100.00;103421.88;4965891;28;20029;-75
2023/02/05 04:10:17;;;;;;;12.48;5.45;;;-2.30;99.90;;;-4.27;100.00;103422.75;4955252;28;20022;-74
2023/02/05 04:12:45;;;;;;;15.80;6.00;;;-2.30;99.90;;;-4.24;100.00;103425.50;4957512;28;20038;-74
2023/02/05 04:15:11;;;;;;;11.98;5.82;;;-2.30;99.90;;;-4.24;100.00;103422.03;4978982;28;20065;-74
2023/02/05 04:17:38;;;;;;;10.57;5.55;;;-2.30;99.90;;;-4.20;100.00;103430.03;4986526;28;20062;-74
2023/02/05 04:20:05;;;;;;;10.73;5.70;;;-2.20;99.90;;;-4.11;100.00;103437.38;4962233;28;20070;-74
2023/02/05 04:22:34;;;;;;;19.15;5.80;;;-2.20;99.90;;;-3.99;100.00;103442.38;4956134;28;20424;-74
2023/02/05 04:25:00;;;;;;;12.40;5.93;;;-2.10;99.90;;;-3.96;100.00;103438.25;4977724;28;20038;-74
2023/02/05 04:27:26;;;;;;;10.90;5.50;;;-2.10;99.90;;;-3.89;100.00;103441.19;4952206;28;20068;-74
2023/02/05 04:29:51;;;;;;;14.02;6.10;;;-2.00;99.90;;;-3.82;100.00;103435.56;4987534;28;20109;-75
2023/02/05 04:32:17;;;;;;;10.88;5.65;;;-2.00;99.90;;;-3.78;100.00;103438.44;4981202;28;20112;-74
2023/02/05 04:34:43;;;;;;;10.60;5.88;;;-2.00;99.90;;;-3.75;100.00;103428.28;4981284;28;20567;-75
2023/02/05 04:37:09;;;;;;;10.35;5.03;;;-2.00;99.90;;;-3.84;100.00;103427.78;4991685;28;20376;-75
2023/02/05 04:39:34;;;;;;;8.82;4.82;;;-2.10;99.90;;;-3.88;100.00;103424.94;4970068;28;20044;-75
2023/02/05 04:42:00;;;;;;;14.48;4.80;;;-2.10;99.90;;;-3.91;100.00;103425.63;4987575;28;20030;-75
2023/02/05 04:44:27;;;;;;;12.35;4.75;;;-2.10;99.90;;;-3.92;100.00;103422.19;4979972;28;20462;-74
2023/02/05 04:46:53;;;;;;;10.15;5.00;;;-2.10;99.90;;;-3.92;100.00;103424.75;4991880;28;20064;-74
2023/02/05 04:49:19;;;;;;;11.63;5.57;;;-1.70;99.90;;;-3.88;100.00;103430.09;4988271;28;20045;-74
2023/02/05 04:51:45;;;;;;;12.35;6.10;;;-2.10;99.90;;;-3.87;100.00;103422.44;4970697;28;20045;-74
2023/02/05 04:54:11;;;;;;;10.30;5.78;;;-2.10;99.90;;;-3.85;100.00;103428.56;4987345;28;20046;-74
2023/02/05 04:56:38;;;;;;;12.55;6.25;;;-2.10;99.90;;;-3.80;100.00;103423.66;4962467;28;20089;-74
2023/02/05 04:59:03;;;;;;;12.32;5.85;;;-2.00;99.90;;;-3.78;100.00;103416.91;4976991;28;20162;-74
2023/02/05 05:01:29;;;;;;;15.35;6.03;;;-2.00;99.90;;;-3.77;100.00;103416.13;4961733;28;20487;-74
2023/02/05 05:03:55;;;;;;;17.83;6.60;;;-2.00;99.90;;;-3.78;100.00;103417.81;4987528;28;20066;-75
2023/02/05 05:06:21;;;;;;;11.60;5.90;;;-2.00;99.90;;;-3.79;100.00;103410.88;4974181;28;20112;-74
2023/02/05 05:08:47;;;;;;;8.48;5.28;;;-2.00;99.90;;;-3.78;100.00;103412.69;4969377;28;20034;-74
2023/02/05 05:11:18;;;;;;;10.32;5.10;;;-2.00;99.90;;;-3.77;100.00;103408.41;4989719;28;20041;-74
2023/02/05 05:13:47;;;;;;;9.05;5.40;;;-2.00;99.90;;;-3.77;100.00;103410.97;4986280;28;20035;-75
2023/02/05 05:16:13;;;;;;;13.70;5.65;;;-2.00;99.90;;;-3.75;99.97;103417.97;4988842;28;20031;-74
2023/02/05 05:18:41;;;;;;;13.48;6.30;;;-2.00;99.90;;;-3.72;99.99;103414.69;4994400;28;20716;-74
2023/02/05 05:21:07;;;;;;;16.27;6.40;;;-2.00;99.90;;;-3.78;99.92;103412.69;4989340;28;20061;-74
2023/02/05 05:23:34;;;;;;;16.23;6.32;;;-2.00;99.90;;;-3.90;99.72;103418.81;4988291;28;20030;-74
2023/02/05 05:26:05;;;;;;;14.18;6.32;;;-2.10;99.90;;;-3.92;99.16;103414.47;4990943;28;20037;-75
2023/02/05 05:28:33;;;;;;;12.73;6.13;;;-2.10;99.90;;;-3.92;99.55;103418.72;4977159;28;20038;-75
2023/02/05 05:31:05;;;;;;;14.85;6.72;;;-2.10;99.90;;;-3.90;99.28;103421.41;4981284;28;20041;-74
2023/02/05 05:33:33;;;;;;;18.05;6.85;;;-2.10;99.90;;;-3.96;99.39;103417.66;4957862;28;20107;-74
2023/02/05 05:35:58;;;;;;;14.35;6.93;;;-2.10;99.90;;;-4.01;100.00;103413.06;4987687;28;20042;-74
2023/02/05 05:38:24;;;;;;;19.73;8.35;;;-2.10;99.90;;;-4.00;100.00;103408.00;4973798;28;20113;-74
2023/02/05 05:43:47;;;;;;;18.98;7.00;;;-2.10;99.90;;;-3.96;100.00;103409.94;4982015;28;20108;-74
2023/02/05 05:46:23;;;;;;;14.07;7.03;;;-2.00;99.90;;;-3.93;100.00;103417.84;4970623;28;20031;-74
2023/02/05 05:48:51;;;;;;;16.77;7.43;;;-2.10;99.90;;;-3.92;100.00;103414.47;4966436;28;20050;-74
2023/02/05 05:51:21;;;;;;;16.23;7.57;;;-2.10;99.90;;;-4.00;100.00;103415.72;4987583;28;20060;-74
2023/02/05 05:53:47;;;;;;;15.00;7.03;;;-2.10;99.90;;;-3.94;100.00;103420.34;4970719;28;20064;-74
2023/02/05 05:56:15;;;;;;;16.23;6.88;;;-2.00;99.90;;;-3.90;100.00;103421.41;4964980;28;20037;-74
2023/02/05 05:58:41;;;;;;;13.40;6.68;;;-2.10;99.90;;;-4.04;100.00;103415.47;4977422;28;20530;-75
2023/02/05 06:01:07;;;;;;;13.00;6.10;;;-2.10;99.90;;;-4.16;100.00;103401.09;4986995;28;20057;-74
2023/02/05 06:03:33;;;;;;;10.65;5.32;;;-2.10;99.90;;;-4.14;100.00;103399.50;4989130;28;20044;-74
2023/02/05 06:06:04;;;;;;;17.33;6.03;;;-2.10;99.90;;;-4.00;100.00;103391.66;4994361;28;20038;-74
2023/02/05 06:08:31;;;;;;;13.68;5.70;;;-2.10;99.90;;;-3.94;100.00;103389.44;4987835;28;20038;-75
2023/02/05 06:10:57;;;;;;;16.20;6.40;;;-2.10;99.90;;;-3.97;100.00;103408.19;4986827;28;20038;-75
2023/02/05 06:13:24;;;;;;;11.52;5.53;;;-2.10;99.90;;;-3.95;100.00;103401.44;4991819;28;20060;-74
2023/02/05 06:15:50;;;;;;;16.25;6.00;;;-2.10;99.90;;;-3.93;100.00;103404.97;4980535;28;20042;-74
2023/02/05 06:18:18;;;;;;;11.07;5.65;;;-2.00;99.90;;;-3.86;100.00;103408.78;4967086;28;20395;-74
2023/02/05 06:20:44;;;;;;;17.77;5.95;;;-2.00;99.90;;;-3.82;100.00;103410.72;4986450;28;20045;-74
2023/02/05 06:23:10;;;;;;;13.82;5.72;;;-2.00;99.90;;;-3.80;100.00;103418.50;4983344;28;20487;-74
2023/02/05 06:25:36;;;;;;;11.80;5.55;;;-2.00;99.90;;;-3.83;100.00;103423.50;4965842;28;20500;-74
2023/02/05 06:28:02;;;;;;;12.05;6.35;;;-2.00;99.90;;;-3.83;100.00;103415.78;4977397;28;20076;-74
2023/02/05 06:30:28;;;;;;;16.20;6.03;;;-2.00;99.90;;;-3.83;100.00;103419.22;4983315;28;20581;-74
2023/02/05 06:32:54;;;;;;;8.45;5.22;;;-2.00;99.90;;;-3.77;100.00;103429.88;4987026;28;20045;-74
2023/02/05 06:35:19;;;;;;;13.75;5.80;;;-1.90;99.90;;;-3.77;100.00;103423.84;4978452;28;20064;-75
2023/02/05 06:37:48;;;;;;;9.10;5.05;;;-1.90;99.90;;;-3.78;100.00;103420.41;4999769;28;20121;-75
2023/02/05 06:40:16;;;;;;;11.07;5.53;;;-1.90;99.90;;;-3.71;100.00;103425.06;4989437;28;20038;-74
2023/02/05 06:42:43;;;;;;;11.68;5.20;;;-1.90;99.90;;;-3.69;100.00;103421.69;4985313;28;20054;-76
2023/02/05 06:45:10;;;;;;;12.80;5.93;;;-1.90;99.90;;;-3.73;100.00;103421.53;4980879;28;20486;-75
2023/02/05 06:47:37;;;;;;;10.98;5.03;;;-1.90;99.90;;;-3.80;100.00;103409.13;4981434;28;20546;-75
2023/02/05 06:50:06;;;;;;;13.93;4.97;;;-1.90;99.90;;;-3.78;100.00;103412.69;4984357;28;20173;-74
2023/02/05 06:52:32;;;;;;;15.68;5.05;;;-1.90;99.90;;;-3.73;100.00;103400.94;4989038;28;20538;-74
2023/02/05 06:54:58;;;;;;;18.17;4.50;;;-1.80;99.90;;;-3.70;100.00;103395.06;4979979;28;20041;-74
2023/02/05 06:57:24;;;;;;;13.40;4.35;;;-1.80;99.90;;;-3.68;100.00;103396.03;4972108;28;20046;-74
2023/02/05 06:59:50;;;;;;;7.53;4.22;;;-1.80;99.90;;;-3.65;100.00;103388.50;4988812;28;20030;-74
2023/02/05 07:02:16;;;;;;;9.35;5.15;;;-1.70;99.90;;;-3.59;100.00;103393.94;4990868;28;20030;-74
2023/02/05 07:04:45;;;;;;;10.18;4.55;;;-1.70;99.90;;;-3.54;100.00;103392.53;4973406;28;20077;-74
2023/02/05 07:07:11;;;;;;;12.82;4.55;;;-1.70;99.90;;;-3.51;100.00;103391.78;4985477;28;20045;-74
2023/02/05 07:09:37;;;;;;;7.15;3.88;;;-1.60;99.90;;;-3.47;100.00;103382.56;4988831;28;20069;-74
2023/02/05 07:12:03;;;;;;;9.07;3.97;;;-1.60;99.90;;;-3.46;100.00;103379.16;4956444;28;20044;-74
2023/02/05 07:14:30;;;;;;;7.88;3.65;;;-1.60;99.90;;;-3.41;100.00;103382.84;4955328;28;20053;-75
2023/02/05 07:16:56;;;;;;;7.72;3.45;;;-1.50;99.90;;;-3.34;100.00;103390.13;4989215;28;20079;-74
2023/02/05 07:19:21;;;;;;;12.43;3.55;;;-1.50;99.90;;;-3.28;100.00;103387.88;4981713;28;20438;-75
2023/02/05 07:21:47;;;;;;;7.65;3.40;;;-1.50;99.90;;;-3.20;100.00;103389.16;4974526;28;20034;-74
2023/02/05 07:24:13;;;;;;;7.35;3.33;;;-1.40;99.90;;;-3.14;100.00;103399.78;4992220;28;20044;-75
2023/02/05 07:26:41;;;;;;;14.95;3.92;;;-1.40;99.90;;;-3.10;100.00;103406.88;4965188;28;20045;-75
2023/02/05 07:29:07;;;;;;;7.15;2.97;;;-1.40;99.90;;;-3.04;100.00;103406.31;5004724;28;20046;-75
2023/02/05 07:31:33;;;;;;;10.82;3.80;;;-1.30;99.90;;;-3.00;100.00;103404.78;4980821;28;20034;-75
2023/02/05 07:33:58;;;;;;;9.02;3.53;;;-1.30;99.90;;;-3.02;100.00;103403.81;4985957;28;20644;-75
2023/02/05 07:36:24;;;;;;;11.93;3.72;;;-1.20;99.90;;;-2.99;100.00;103409.13;4997561;28;20116;-74
2023/02/05 07:38:52;;;;;;;8.18;4.10;;;-1.20;99.90;;;-2.94;100.00;103412.84;4989228;28;20140;-75
2023/02/05 07:41:18;;;;;;;8.52;3.40;;;-1.20;99.90;;;-2.91;100.00;103407.84;4981144;28;20037;-75
2023/02/05 07:43:44;;;;;;;8.55;3.80;;;-1.20;99.90;;;-2.89;100.00;103411.41;4971417;28;20031;-75
2023/02/05 07:46:14;;;;;;;13.48;8.48;;;-1.10;99.90;;;-2.92;100.00;103413.81;4972728;28;20042;-75
2023/02/05 07:48:40;;;;;;;7.30;4.03;;;;;;;-2.88;100.00;103413.16;5002074;28;20045;-74
2023/02/05 07:51:06;;;;;;;9.05;3.45;;;-1.10;99.90;;;-2.86;100.00;103414.13;4984191;28;20037;-74
2023/02/05 07:53:32;;;;;;;10.27;4.65;;;-1.10;99.90;;;-2.84;100.00;103403.91;4987817;28;20034;-74
2023/02/05 07:56:03;;;;;;;7.72;3.40;;;-1.00;99.90;;;-2.81;100.00;103410.06;4976648;28;20061;-74
2023/02/05 07:58:29;;;;;;;7.05;3.10;;;-0.90;99.90;;;-2.77;100.00;103406.84;5001906;28;20128;-75
2023/02/05 08:00:58;;;;;;;7.10;2.83;;;-0.90;99.90;;;-2.73;100.00;103403.63;4989385;28;20499;-75
2023/02/05 08:03:24;;;;;;;5.70;2.80;;;-0.90;99.90;;;-2.64;100.00;103395.47;4976244;28;20046;-74
2023/02/05 08:05:49;;;;;;;7.00;2.85;;;-0.80;99.90;;;-2.59;100.00;103406.91;4982738;28;20179;-74
2023/02/05 08:08:15;;;;;;;8.63;2.88;;;-0.80;99.90;;;-2.56;100.00;103413.94;4987803;28;20041;-74
2023/02/05 08:10:41;;;;;;;4.30;2.67;;;-0.70;99.90;;;-2.50;99.78;103404.78;4986206;28;20038;-74
2023/02/05 08:13:07;;;;;;;13.43;3.60;;;-0.70;99.90;;;-2.42;99.40;103405.16;4979354;28;20044;-75
2023/02/05 08:15:33;;;;;;;5.85;3.03;;;-0.60;99.90;;;-2.39;99.03;103407.91;4987790;28;20034;-74
2023/02/05 08:18:01;;;;;;;11.82;4.43;;;-0.60;99.90;;;-2.36;98.90;103402.00;4979368;28;20118;-77
2023/02/05 08:20:30;;;;;;;8.73;5.05;;;-0.50;99.90;;;-2.27;98.59;103418.84;4964175;28;20050;-75
2023/02/05 08:22:56;;;;;;;9.35;5.60;;;-0.50;99.90;;;-2.19;98.50;103414.06;4974072;28;20092;-75
2023/02/05 08:25:22;;;;;;;10.35;4.82;;;-0.40;99.90;;;-2.09;98.10;103415.41;4972517;28;20038;-75
2023/02/05 08:27:48;;;;;;;9.52;4.40;;;-0.30;99.90;;;-1.97;98.09;103415.97;4980186;28;20123;-74
2023/02/05 08:30:18;;;;;;;8.27;4.20;;;-0.30;99.90;;;-1.80;97.48;103421.06;4989053;28;20093;-75
2023/02/05 08:32:49;;;;;;;7.35;2.88;;;-0.10;99.90;;;-1.63;97.00;103422.75;4962419;28;20121;-74
2023/02/05 08:35:16;;;;;;;4.78;2.33;;;0.00;99.90;;;-1.50;96.29;103421.63;4984079;28;20034;-74
2023/02/05 08:37:42;;;;;;;8.82;3.53;;;0.10;99.90;;;-1.35;95.82;103414.56;4973725;28;20557;-74
2023/02/05 08:40:09;;;;;;;8.10;3.72;;;0.20;99.90;;;-1.35;95.32;103412.00;4972673;28;20022;-74
2023/02/05 08:42:35;;;;;;;7.65;2.95;;;0.30;99.90;;;-1.26;94.70;103411.53;4952458;28;20092;-75
2023/02/05 08:45:02;;;;;;;8.65;2.80;;;0.40;99.90;;;-1.17;94.02;103418.81;4971833;28;20057;-74
2023/02/05 08:47:28;;;;;;;5.60;2.67;;;0.40;99.90;;;-1.12;93.05;103425.97;4989016;28;20463;-74
2023/02/05 08:49:54;;;;;;;5.07;2.47;;;0.50;99.90;;;-1.07;92.79;103416.69;4979389;28;20042;-74
2023/02/05 08:52:20;;;;;;;6.28;2.58;;;0.50;99.90;;;-0.99;92.49;103410.97;4982103;28;20026;-75
2023/02/05 08:54:47;;;;;;;6.25;2.70;;;0.60;99.90;;;-0.97;91.99;103410.25;4968284;28;20065;-75
2023/02/05 08:57:13;;;;;;;6.70;3.35;;;0.60;99.90;;;-0.99;91.63;103405.78;4988732;28;20030;-75
2023/02/05 08:59:38;;;;;;;11.77;5.15;;;0.60;99.90;;;-0.99;91.44;103405.78;4987390;28;20034;-74
2023/02/05 09:02:05;;;;;;;12.93;3.25;;;0.70;99.90;;;-0.86;91.47;103410.72;4970938;28;20038;-75
2023/02/05 09:04:34;;;;;;;6.25;3.22;;;0.80;99.90;;;-0.71;90.90;103407.91;4990208;28;20034;-74
2023/02/05 09:07:00;;;;;;;6.60;2.95;;;0.90;99.90;;;-0.59;90.43;103411.00;4980690;28;20038;-75
2023/02/05 09:09:26;;;;;;;4.22;2.60;;;1.00;99.90;;;-0.50;90.00;103415.69;4990922;28;20037;-75
2023/02/05 09:11:57;;;;;;;9.65;3.33;;;1.00;99.90;;;-0.40;89.21;103425.63;4990176;28;20030;-74
2023/02/05 09:14:34;;;;;;;9.93;3.63;;;1.10;99.90;;;-0.32;88.95;103426.81;4988757;28;20034;-74
2023/02/05 09:17:08;;;;;;;6.35;3.30;;;1.10;99.90;;;-0.33;88.80;103413.81;4976012;28;20037;-75
2023/02/05 09:19:43;;;;;;;8.95;2.65;;;1.30;99.90;;;-0.22;87.79;103416.03;4966693;28;20041;-75
2023/02/05 09:22:09;;;;;;;3.45;1.80;;;1.30;99.90;;;-0.15;87.66;103414.56;4963766;28;20034;-75
2023/02/05 09:24:38;;;;;;;7.15;1.95;;;1.40;99.90;;;-0.10;86.99;103407.00;4986910;28;20065;-74
2023/02/05 09:27:07;;;;;;;7.65;2.00;;;1.40;99.90;;;-0.13;86.51;103409.44;4989600;28;20634;-75
2023/02/05 09:29:36;;;;;;;3.92;1.88;;;1.50;99.90;;;-0.07;85.89;103412.28;4982475;28;20068;-75
2023/02/05 09:32:02;;;;;;;6.95;2.50;;;1.50;99.90;;;-0.07;85.12;103407.09;4989915;28;20038;-75
2023/02/05 09:34:32;;;;;;;7.55;2.75;;;1.50;99.90;;;-0.05;85.16;103403.75;4973103;28;20073;-75
2023/02/05 09:37:01;;;;;;;5.85;2.22;;;1.60;99.90;;;0.08;84.85;103401.66;4990927;28;20112;-75
2023/02/05 09:39:30;;;;;;;11.35;3.38;;;1.60;99.90;;;0.15;85.10;103401.06;4986668;28;20082;-74
2023/02/05 09:42:15;;;;;;;12.15;6.05;;;1.70;99.90;;;0.16;84.69;103406.31;4987100;28;20487;-75
2023/02/05 09:45:15;;;;;;;47.97;19.30;;;1.70;99.90;;;0.20;84.51;103408.19;4985055;28;20166;-75
2023/02/05 09:48:16;;;;;;;44.55;16.70;;;1.70;99.90;;;0.16;83.78;103401.13;4982049;28;20063;-75
2023/02/05 09:50:42;;;;;;;12.77;4.82;;;1.70;99.90;;;0.22;83.42;103403.09;4982884;28;20419;-75
2023/02/05 09:53:16;;;;;;;5.63;1.90;;;1.80;99.90;;;0.22;83.31;103404.78;4991555;28;20089;-75
2023/02/05 09:55:45;;;;;;;7.60;2.63;;;1.80;99.90;;;0.33;83.50;103398.31;4968084;28;20039;-75
2023/02/05 09:58:34;;;;;;;10.05;4.93;;;1.90;99.90;;;0.27;83.24;103401.53;4986110;28;20033;-75
2023/02/05 10:01:08;;;;;;;89.00;30.23;;;1.90;99.90;;;0.40;82.80;103405.50;4995313;28;20124;-75
2023/02/05 10:03:50;;;;;;;8.85;3.40;;;1.90;99.90;;;0.41;82.96;103407.25;4990198;28;20384;-75
2023/02/05 10:06:20;;;;;;;5.57;2.42;;;2.00;99.90;;;0.52;82.62;103400.78;4983284;28;20456;-75
2023/02/05 10:09:39;;;;;;;5.75;2.38;;;2.00;99.90;;;0.56;82.68;103407.88;4982825;28;20125;-76
2023/02/05 10:12:51;;;;;;;7.80;2.17;;;2.10;99.90;;;0.61;81.95;103405.44;4982804;28;20177;-75
2023/02/05 10:15:44;;;;;;;7.90;2.28;;;2.10;99.90;;;0.61;81.77;103400.25;4984679;28;20056;-76
2023/02/05 10:18:31;;;;;;;5.93;1.92;;;2.20;99.90;;;0.71;81.51;103409.25;4999973;28;20053;-76
2023/02/05 10:21:18;;;;;;;4.50;1.75;;;2.30;99.90;;;0.74;81.51;103401.59;4945518;28;20045;-75
2023/02/05 10:24:07;;;;;;;4.57;2.33;;;2.30;99.90;;;0.74;80.76;103391.22;4982496;28;20043;-75